East Millinocket, ME

7:53 AM EDT on July 29, 2014 (GMT -0400)
Millinocket Municipal (KMLT) Elev 407 ft | 45.65 °N, 68.69 °W | Change Station

Current weather conditions updated 33 minutes ago

Overcast
Overcast
63 °F
Feels Like 63 °F
N
7
Wind Variable Wind from West

Today is forecast to be Warmer than yesterday.

Today
High -- | Low -- °F
--% Chance of Precip.
Yesterday
High -- | Low -- °F
Precip. -- in
5:14 AM 8:06 PM
Waxing Crescent, 6% visible
Pressure 29.59 in
Visibility 10.0 miles
Clouds Few 2500 ft
Mostly Cloudy 3000 ft
Overcast 4400 ft
Dew Point 57 °F
Humidity 81%
Rainfall 0.00 in
Snow Depth Not available.
UV 0 out of 12
Pollen 3.30 out of 12
Ozone Good
PM2.5 Good
Flu Activity Not available.
SPECI KMLT 291120Z AUTO 27006KT 10SM FEW025 BKN030 OVC044 17/14 A2959 RMK AO2 T01720139

More Conditions Fewer Conditions

Pressure 29.59 in
Visibility 10.0 miles
Clouds Few 2500 ft
Mostly Cloudy 3000 ft
Overcast 4400 ft
Dew Point 57 °F
Humidity 81%
Rainfall 0.00 in
Snow Depth Not available.
UV 0 out of 12
Pollen 3.30 out of 12
Ozone Good
PM2.5 Good
Flu Activity Not available.
SPECI KMLT 291120Z AUTO 27006KT 10SM FEW025 BKN030 OVC044 17/14 A2959 RMK AO2 T01720139

More Conditions Fewer Conditions

10-Day Weather Forecast

Almanac

Astronomy

Jul. 29, 2014 Rise Set
Actual Time 5:14 AM EDT 8:06 PM EDT
Civil Twilight 4:39 AM EDT 8:41 PM EDT
Nautical Twilight 3:55 AM EDT 9:24 PM EDT
Astronomical Twilight 3:03 AM EDT 10:16 PM EDT
Moon 7:58 AM EDT 9:05 PM EDT
Length of Visible Light 16h 01m
Length of Day
14h 52m
Tomorrow will be 2m 22s shorter.
Waxing Crescent, 6% of the Moon is Illuminated
Today
Waxing Crescent
Aug 3
First Quarter
Aug 10
Full
Aug 17
Last Quarter
Aug 25
New

Today's Extremes

State Highs State Lows

Community

WunderPhotos

Upload Photos

1,738,690 photos uploaded!

WunderBlogs® & News

By Dr. Jeff Masters
Director of Meteorology, Weather Underground
By Kari Strenfel
Meteorologist, Weather Underground
By Christopher C. Burt
Weather Historian, Weather Underground
July 29, 2014
July 29, 2014
July 29, 2014

Nearby

Air Quality

  Air Quality AQ Index Pollutant
Yesterday Good
OZONE
Yesterday Good
PM2.5
Current Good
OZONE
Current Good
PM2.5
Tuesday Good
OZONE
Tuesday Good
PM2.5
Wednesday Good
OZONE
Wednesday Good
PM2.5
Thursday Good
OZONE
Thursday Good
PM2.5
Friday Good
OZONE
Friday Good
PM2.5
Saturday Good
OZONE
Saturday Good
PM2.5

Snow Depth

Station Depth Elevation
No new snow has been reported.

Earthquake Activity

City Distance Mag. Time & Date
No recent earthquake activity has been reported nearby.
Minimum magnitude displayed is 2.5.

Coastal Water Temperatures

Place Temperature
No Stations Reporting

Nearby Weather Stations

Station Location Temp. Dew Point Humidity Wind Precip. Elev Updated Type
APRSWXNET Millinocket ME , Millinocket, ME 63 °F 63 °F 99% SSW  at  3 mph 0.00 in / hr 475 ft 4:09 AM EDT MADIS

Show More Stations Show Fewer Stations